createdAt,value
2023-09-12T00:00:00.942Z,100293.59
2023-09-12T00:03:04.310Z,100290.94
2023-09-12T00:06:07.575Z,100289.19
2023-09-12T00:09:10.206Z,100290.03
2023-09-12T00:12:16.423Z,100291.81
2023-09-12T00:15:20.966Z,100292.72
2023-09-12T00:18:23.864Z,100294.44
2023-09-12T00:21:26.349Z,100297.06
2023-09-12T00:24:29.155Z,100290.91
2023-09-12T00:27:31.778Z,100285.63
2023-09-12T00:30:35.476Z,100290.88
2023-09-12T00:33:38.293Z,100290.88
2023-09-12T00:36:41.301Z,100282.97
2023-09-12T00:39:44.080Z,100288.22
2023-09-12T00:42:46.794Z,100290.88
2023-09-12T00:45:49.427Z,100284.72
2023-09-12T00:48:54.177Z,100289.09
2023-09-12T00:51:57.926Z,100293.50
2023-09-12T00:55:02.181Z,100297.87
2023-09-12T00:58:05.447Z,100292.59
2023-09-12T01:01:08.707Z,100293.47
2023-09-12T01:04:24.190Z,100294.37
2023-09-12T01:07:36.783Z,100287.31
2023-09-12T01:10:39.415Z,100287.31
2023-09-12T01:13:42.182Z,100289.09
2023-09-12T01:16:44.961Z,100290.84
2023-09-12T01:19:49.471Z,100288.19
2023-09-12T01:22:59.062Z,100291.69
2023-09-12T01:26:30.875Z,100288.19
2023-09-12T01:29:34.953Z,100296.06
2023-09-12T01:32:39.032Z,100296.03
2023-09-12T01:35:41.509Z,100294.28
2023-09-12T01:38:44.885Z,100295.16
2023-09-12T01:41:49.673Z,100294.28
2023-09-12T01:44:56.689Z,100301.31
2023-09-12T01:47:59.725Z,100297.78
2023-09-12T01:51:05.248Z,100297.78
2023-09-12T01:54:09.349Z,100303.06
2023-09-12T01:57:14.057Z,100292.53
2023-09-12T02:00:19.270Z,100304.75
2023-09-12T02:03:22.357Z,100303.88
2023-09-12T02:06:25.365Z,100301.22
2023-09-12T02:09:28.358Z,100305.59
2023-09-12T02:12:30.918Z,100302.06
2023-09-12T02:15:33.854Z,100307.34
2023-09-12T02:18:37.597Z,100310.88
2023-09-12T02:21:40.448Z,100312.63
2023-09-12T02:24:43.287Z,100308.22
2023-09-12T02:27:46.233Z,100302.06
2023-09-12T02:30:48.800Z,100304.69
2023-09-12T02:33:51.622Z,100304.72
2023-09-12T02:36:54.565Z,100302.09
2023-09-12T02:39:57.511Z,100299.44
2023-09-12T02:43:00.287Z,100298.53
2023-09-12T02:46:03.757Z,100295.91
2023-09-12T02:49:06.821Z,100294.97
2023-09-12T02:52:09.901Z,100299.34
2023-09-12T02:55:12.459Z,100302.00
2023-09-12T02:58:15.388Z,100300.25
2023-09-12T03:01:19.118Z,100299.34
2023-09-12T03:04:22.195Z,100296.66
2023-09-12T03:07:25.131Z,100308.91
2023-09-12T03:10:28.162Z,100313.22
2023-09-12T03:13:30.682Z,100304.44
2023-09-12T03:16:33.863Z,100315.00
2023-09-12T03:19:36.573Z,100313.25
2023-09-12T03:22:39.512Z,100308.03
2023-09-12T03:25:42.401Z,100307.09
2023-09-12T03:28:45.587Z,100309.75
2023-09-12T03:31:48.273Z,100308.88
2023-09-12T03:34:51.298Z,100307.09
2023-09-12T03:37:54.162Z,100311.47
2023-09-12T03:40:57.152Z,100317.63
2023-09-12T03:43:59.715Z,100318.37
2023-09-12T03:47:02.440Z,100321.94
2023-09-12T03:50:05.970Z,100324.53
2023-09-12T03:53:09.822Z,100320.94
2023-09-12T03:56:13.780Z,100323.62
2023-09-12T03:59:17.061Z,100315.66
2023-09-12T04:02:20.148Z,100316.56
2023-09-12T04:05:23.451Z,100322.72
2023-09-12T04:08:26.553Z,100310.44
2023-09-12T04:11:43.781Z,100313.94
2023-09-12T04:14:51.621Z,100318.31
2023-09-12T04:17:54.693Z,100317.41
2023-09-12T04:20:58.972Z,100320.94
2023-09-12T04:24:02.033Z,100317.38
2023-09-12T04:27:05.070Z,100320.91
2023-09-12T04:30:10.133Z,100330.53
2023-09-12T04:33:12.774Z,100327.94
2023-09-12T04:36:15.705Z,100326.19
2023-09-12T04:39:21.608Z,100331.50
2023-09-12T04:42:24.770Z,100324.53
2023-09-12T04:45:27.504Z,100331.56
2023-09-12T04:48:32.541Z,100328.97
2023-09-12T04:51:35.838Z,100344.00
2023-09-12T04:54:39.103Z,100343.19
2023-09-12T04:57:42.797Z,100343.25
2023-09-12T05:00:46.643Z,100341.59
2023-09-12T05:03:49.591Z,100345.13
2023-09-12T05:06:52.652Z,100346.13
2023-09-12T05:09:57.773Z,100351.47
2023-09-12T05:13:00.617Z,100355.03
2023-09-12T05:16:03.556Z,100354.16
2023-09-12T05:19:06.507Z,100352.44
2023-09-12T05:22:09.731Z,100343.69
2023-09-12T05:25:12.595Z,100345.50
2023-09-12T05:28:17.229Z,100346.38
2023-09-12T05:31:20.926Z,100346.38
2023-09-12T05:34:23.887Z,100361.34
2023-09-12T05:37:26.891Z,100356.91
2023-09-12T05:40:29.906Z,100362.16
2023-09-12T05:43:32.891Z,100368.31
2023-09-12T05:46:35.655Z,100369.13
2023-09-12T05:49:38.555Z,100366.41
2023-09-12T05:52:42.737Z,100371.75
2023-09-12T05:55:46.160Z,100369.06
2023-09-12T05:58:51.180Z,100375.06
2023-09-12T06:01:54.779Z,100374.44
2023-09-12T06:04:57.788Z,100366.41
2023-09-12T06:08:00.999Z,100370.31
2023-09-12T06:11:04.098Z,100367.16
2023-09-12T06:14:07.228Z,100370.34
2023-09-12T06:17:10.981Z,100371.59
2023-09-12T06:20:13.498Z,100373.84
2023-09-12T06:23:16.205Z,100380.25
2023-09-12T06:26:18.760Z,100372.63
2023-09-12T06:29:21.725Z,100374.59
2023-09-12T06:32:24.219Z,100370.81
2023-09-12T06:35:27.619Z,100375.22
2023-09-12T06:38:30.341Z,100378.81
2023-09-12T06:41:33.380Z,100380.66
2023-09-12T06:44:36.722Z,100379.63
2023-09-12T06:47:39.698Z,100377.44
2023-09-12T06:50:43.793Z,100378.34
2023-09-12T06:53:49.775Z,100380.38
2023-09-12T06:56:52.208Z,100384.50
2023-09-12T06:59:55.234Z,100392.63
2023-09-12T07:02:58.542Z,100389.59
2023-09-12T07:06:01.933Z,100394.72
2023-09-12T07:09:05.733Z,100400.94
2023-09-12T07:12:09.113Z,100391.53
2023-09-12T07:15:11.882Z,100392.34
2023-09-12T07:18:16.350Z,100387.78
2023-09-12T07:21:19.940Z,100386.13
2023-09-12T07:24:26.729Z,100393.06
2023-09-12T07:27:29.627Z,100391.53
2023-09-12T07:30:32.713Z,100395.91
2023-09-12T07:33:35.736Z,100396.06
2023-09-12T07:36:39.690Z,100392.25
2023-09-12T07:39:42.467Z,100393.44
2023-09-12T07:42:45.317Z,100402.13
2023-09-12T07:45:48.199Z,100396.87
2023-09-12T07:48:51.022Z,100398.00
2023-09-12T07:51:55.368Z,100393.34
2023-09-12T07:55:02.143Z,100393.63
2023-09-12T07:58:04.772Z,100396.13
2023-09-12T08:01:11.211Z,100392.41
2023-09-12T08:04:15.833Z,100388.84
2023-09-12T08:07:18.888Z,100394.69
2023-09-12T08:10:21.926Z,100388.25
2023-09-12T08:13:28.695Z,100385.03
2023-09-12T08:16:33.181Z,100382.91
2023-09-12T08:19:35.965Z,100383.19
2023-09-12T08:22:40.044Z,100385.91
2023-09-12T08:25:42.438Z,100383.34
2023-09-12T08:28:45.594Z,100385.50
2023-09-12T08:31:48.396Z,100393.84
2023-09-12T08:34:51.178Z,100388.94
2023-09-12T08:37:53.870Z,100385.56
2023-09-12T08:40:58.240Z,100393.06
2023-09-12T08:44:02.017Z,100385.19
2023-09-12T08:47:08.401Z,100389.41
2023-09-12T08:50:16.827Z,100390.56
2023-09-12T08:53:23.649Z,100385.34
2023-09-12T08:56:26.825Z,100377.84
2023-09-12T08:59:32.262Z,100385.16
2023-09-12T09:02:36.162Z,100375.41
2023-09-12T09:05:40.969Z,100378.22
2023-09-12T09:08:45.895Z,100379.25
2023-09-12T09:11:49.425Z,100377.50
2023-09-12T09:14:54.404Z,100383.81
2023-09-12T09:18:01.952Z,100373.59
2023-09-12T09:21:21.748Z,100376.47
2023-09-12T09:24:24.623Z,100373.19
2023-09-12T09:27:35.188Z,100370.28
2023-09-12T09:30:43.385Z,100372.22
2023-09-12T09:33:52.407Z,100369.66
2023-09-12T09:36:57.916Z,100369.66
2023-09-12T09:40:00.725Z,100370.88
2023-09-12T09:43:05.190Z,100370.41
2023-09-12T09:46:07.975Z,100367.06
2023-09-12T09:49:12.459Z,100366.22
2023-09-12T09:52:15.149Z,100371.66
2023-09-12T09:55:20.698Z,100365.25
2023-09-12T09:58:24.892Z,100367.22
2023-09-12T10:01:29.709Z,100364.91
2023-09-12T10:04:45.546Z,100358.25
2023-09-12T10:07:51.559Z,100354.03
2023-09-12T10:10:54.628Z,100360.31
2023-09-12T10:14:00.423Z,100352.22
2023-09-12T10:17:07.611Z,100352.03
2023-09-12T10:20:17.369Z,100351.03
2023-09-12T10:23:43.655Z,100338.69
2023-09-12T10:26:47.663Z,100344.44
2023-09-12T10:29:53.554Z,100342.47
2023-09-12T10:32:57.189Z,100337.44
2023-09-12T10:36:00.868Z,100337.50
2023-09-12T10:39:06.209Z,100327.03
2023-09-12T10:42:09.840Z,100336.97
2023-09-12T10:45:12.803Z,100330.59
2023-09-12T10:48:15.983Z,100331.84
2023-09-12T10:51:19.996Z,100329.72
2023-09-12T10:54:36.322Z,100325.09
2023-09-12T10:58:05.988Z,100330.44
2023-09-12T11:01:42.625Z,100320.03
2023-09-12T11:04:45.894Z,100324.78
2023-09-12T11:07:48.911Z,100319.28
2023-09-12T11:11:21.341Z,100324.00
2023-09-12T11:14:25.459Z,100315.63
2023-09-12T11:17:28.115Z,100308.91
2023-09-12T11:20:59.130Z,100310.38
2023-09-12T11:24:01.949Z,100304.31
2023-09-12T11:27:09.121Z,100306.31
2023-09-12T11:30:12.355Z,100297.31
2023-09-12T11:33:15.535Z,100288.09
2023-09-12T11:36:20.151Z,100287.06
2023-09-12T11:39:27.358Z,100288.53
2023-09-12T11:42:31.274Z,100285.47
2023-09-12T11:45:34.782Z,100284.16
2023-09-12T11:48:37.852Z,100288.97
2023-09-12T11:51:54.949Z,100284.44
2023-09-12T11:54:57.643Z,100285.03
2023-09-12T11:58:00.812Z,100277.59
2023-09-12T12:01:04.350Z,100273.44
2023-09-12T12:04:08.490Z,100272.41
2023-09-12T12:07:12.684Z,100274.22
2023-09-12T12:10:17.032Z,100267.53
2023-09-12T12:13:20.986Z,100264.84
2023-09-12T12:16:27.484Z,100270.09
2023-09-12T12:19:30.216Z,100266.44
2023-09-12T12:22:33.023Z,100258.59
2023-09-12T12:25:36.233Z,100260.84
2023-09-12T12:28:39.354Z,100264.34
2023-09-12T12:31:42.320Z,100252.19
2023-09-12T12:35:36.050Z,100251.09
2023-09-12T12:38:13.307Z,100249.38
2023-09-12T12:41:24.630Z,100235.88
2023-09-12T12:44:36.364Z,100232.81
2023-09-12T12:47:39.270Z,100235.28
2023-09-12T12:50:43.964Z,100224.56
2023-09-12T12:53:53.467Z,100219.81
2023-09-12T12:56:56.794Z,100219.97
2023-09-12T13:00:00.768Z,100220.34
2023-09-12T13:03:04.556Z,100223.37
2023-09-12T13:06:09.034Z,100206.19
2023-09-12T13:09:12.828Z,100214.63
2023-09-12T13:12:16.091Z,100221.59
2023-09-12T13:15:19.853Z,100215.84
2023-09-12T13:18:22.835Z,100220.09
2023-09-12T13:21:25.559Z,100217.66
2023-09-12T13:24:28.325Z,100207.75
2023-09-12T13:27:30.826Z,100212.28
2023-09-12T13:30:33.674Z,100213.06
2023-09-12T13:33:37.173Z,100205.66
2023-09-12T13:36:40.115Z,100208.59
2023-09-12T13:39:42.876Z,100198.88
2023-09-12T13:42:46.951Z,100199.91
2023-09-12T13:45:49.915Z,100207.31
2023-09-12T13:48:53.048Z,100198.09
2023-09-12T13:51:56.089Z,100204.78
2023-09-12T13:54:59.642Z,100191.88
2023-09-12T13:58:06.280Z,100198.22
2023-09-12T14:01:10.023Z,100197.56
2023-09-12T14:04:15.228Z,100200.22
2023-09-12T14:07:18.380Z,100192.06
2023-09-12T14:10:29.392Z,100190.19
2023-09-12T14:13:37.178Z,100189.94
2023-09-12T14:16:40.264Z,100189.87
2023-09-12T14:19:44.880Z,100186.56
2023-09-12T14:22:47.930Z,100186.63
2023-09-12T14:25:50.911Z,100189.56
2023-09-12T14:28:54.897Z,100193.50
2023-09-12T14:31:59.146Z,100191.72
2023-09-12T14:35:01.971Z,100187.53
2023-09-12T14:38:05.525Z,100188.69
2023-09-12T14:41:13.129Z,100187.38
2023-09-12T14:44:15.772Z,100181.66
2023-09-12T14:47:18.485Z,100182.16
2023-09-12T14:50:27.280Z,100183.56
2023-09-12T14:53:36.907Z,100178.22
2023-09-12T14:56:39.961Z,100175.78
2023-09-12T14:59:42.688Z,100177.06
2023-09-12T15:02:45.355Z,100183.13
2023-09-12T15:05:48.156Z,100188.75
2023-09-12T15:08:51.539Z,100185.38
2023-09-12T15:11:54.284Z,100185.25
2023-09-12T15:14:57.004Z,100184.41
2023-09-12T15:18:01.005Z,100179.37
2023-09-12T15:21:04.791Z,100174.88
2023-09-12T15:24:07.795Z,100178.00
2023-09-12T15:27:10.327Z,100175.94
2023-09-12T15:30:13.513Z,100176.88
2023-09-12T15:33:16.547Z,100170.84
2023-09-12T15:36:19.494Z,100176.94
2023-09-12T15:39:21.943Z,100170.91
2023-09-12T15:42:36.795Z,100180.06
2023-09-12T15:45:50.524Z,100168.25
2023-09-12T15:48:56.252Z,100169.78
2023-09-12T15:51:59.503Z,100178.09
2023-09-12T15:55:02.550Z,100165.63
2023-09-12T15:58:06.443Z,100174.88
2023-09-12T16:01:09.350Z,100177.31
2023-09-12T16:04:12.158Z,100171.53
2023-09-12T16:07:14.663Z,100169.37
2023-09-12T16:10:17.508Z,100167.81
2023-09-12T16:13:20.158Z,100163.66
2023-09-12T16:16:22.924Z,100163.19
2023-09-12T16:19:25.717Z,100161.75
2023-09-12T16:22:29.492Z,100166.94
2023-09-12T16:25:31.957Z,100168.56
2023-09-12T16:28:34.865Z,100168.38
2023-09-12T16:31:38.035Z,100167.28
2023-09-12T16:34:41.199Z,100164.47
2023-09-12T16:37:43.713Z,100165.31
2023-09-12T16:40:47.358Z,100173.19
2023-09-12T16:43:49.860Z,100158.81
2023-09-12T16:46:52.854Z,100163.94
2023-09-12T16:49:58.140Z,100164.62
2023-09-12T16:53:01.060Z,100159.91
2023-09-12T16:56:03.650Z,100158.69
2023-09-12T16:59:06.319Z,100151.22
2023-09-12T17:02:09.071Z,100157.03
2023-09-12T17:05:12.193Z,100163.81
2023-09-12T17:08:14.845Z,100166.94
2023-09-12T17:11:18.042Z,100159.37
2023-09-12T17:14:21.370Z,100168.63
2023-09-12T17:17:25.407Z,100166.31
2023-09-12T17:20:28.301Z,100165.75
2023-09-12T17:23:31.009Z,100167.84
2023-09-12T17:26:33.458Z,100165.50
2023-09-12T17:29:36.230Z,100174.66
2023-09-12T17:32:38.749Z,100170.53
2023-09-12T17:35:42.369Z,100177.81
2023-09-12T17:38:45.062Z,100178.91
2023-09-12T17:41:48.568Z,100180.06
2023-09-12T17:44:51.116Z,100174.97
2023-09-12T17:47:54.818Z,100176.03
2023-09-12T17:50:57.919Z,100171.84
2023-09-12T17:54:00.745Z,100179.09
2023-09-12T17:57:03.611Z,100185.50
2023-09-12T18:00:09.115Z,100182.16
2023-09-12T18:03:14.384Z,100183.13
2023-09-12T18:06:19.965Z,100183.28
2023-09-12T18:09:22.593Z,100185.22
2023-09-12T18:12:25.357Z,100189.87
2023-09-12T18:15:28.001Z,100193.53
2023-09-12T18:18:31.086Z,100196.31
2023-09-12T18:21:33.881Z,100201.78
2023-09-12T18:24:36.705Z,100207.22
2023-09-12T18:27:39.317Z,100202.94
2023-09-12T18:30:42.367Z,100209.28
2023-09-12T18:33:46.686Z,100211.13
2023-09-12T18:36:50.227Z,100215.59
2023-09-12T18:39:53.100Z,100209.44
2023-09-12T18:42:56.610Z,100214.81
2023-09-12T18:45:59.631Z,100218.47
2023-09-12T18:49:04.308Z,100213.25
2023-09-12T18:52:07.251Z,100214.22
2023-09-12T18:55:10.550Z,100221.34
2023-09-12T18:58:14.183Z,100218.84
2023-09-12T19:01:17.575Z,100218.06
2023-09-12T19:04:29.879Z,100216.47
2023-09-12T19:07:32.805Z,100215.62
2023-09-12T19:10:35.759Z,100216.53
2023-09-12T19:13:38.619Z,100216.63
2023-09-12T19:16:43.293Z,100222.84
2023-09-12T19:19:46.363Z,100221.16
2023-09-12T19:22:49.482Z,100223.06
2023-09-12T19:25:52.269Z,100223.13
2023-09-12T19:28:54.920Z,100222.34
2023-09-12T19:31:57.676Z,100232.16
2023-09-12T19:35:01.171Z,100232.25
2023-09-12T19:38:05.830Z,100230.56
2023-09-12T19:41:08.760Z,100232.34
2023-09-12T19:44:12.109Z,100230.63
2023-09-12T19:47:15.737Z,100229.75
2023-09-12T19:50:18.751Z,100231.50
2023-09-12T19:53:21.485Z,100227.13
2023-09-12T19:56:24.491Z,100222.75
2023-09-12T19:59:27.995Z,100221.00
2023-09-12T20:02:31.006Z,100216.59
2023-09-12T20:05:33.755Z,100222.81
2023-09-12T20:08:36.453Z,100225.53
2023-09-12T20:11:39.552Z,100222.03
2023-09-12T20:14:42.021Z,100226.47
2023-09-12T20:17:47.857Z,100230.03
2023-09-12T20:20:50.699Z,100233.56
2023-09-12T20:23:54.296Z,100250.41
2023-09-12T20:26:57.429Z,100239.00
2023-09-12T20:30:01.144Z,100245.19
2023-09-12T20:33:04.939Z,100249.69
2023-09-12T20:36:08.213Z,100246.19
2023-09-12T20:39:26.339Z,100245.38
2023-09-12T20:42:29.250Z,100249.91
2023-09-12T20:45:31.998Z,100241.25
2023-09-12T20:48:36.589Z,100249.22
2023-09-12T20:51:41.584Z,100252.00
2023-09-12T20:54:44.919Z,100251.13
2023-09-12T20:57:47.782Z,100250.31
2023-09-12T21:00:50.609Z,100252.12
2023-09-12T21:03:54.830Z,100249.50
2023-09-12T21:06:58.039Z,100254.84
2023-09-12T21:10:00.561Z,100247.84
2023-09-12T21:13:03.939Z,100258.50
2023-09-12T21:16:06.929Z,100260.38
2023-09-12T21:19:10.008Z,100262.16
2023-09-12T21:22:12.538Z,100262.16
2023-09-12T21:25:15.780Z,100265.69
2023-09-12T21:28:19.140Z,100270.13
2023-09-12T21:31:22.011Z,100272.78
2023-09-12T21:34:24.502Z,100270.16
2023-09-12T21:37:27.209Z,100264.09
2023-09-12T21:40:29.740Z,100267.63
2023-09-12T21:43:32.730Z,100265.88
2023-09-12T21:46:36.432Z,100269.47
2023-09-12T21:49:39.541Z,100267.69
2023-09-12T21:52:43.580Z,100266.78
2023-09-12T21:55:47.117Z,100266.78
2023-09-12T21:58:49.647Z,100274.72
2023-09-12T22:01:52.703Z,100270.31
2023-09-12T22:04:55.640Z,100264.19
2023-09-12T22:07:58.340Z,100270.34
2023-09-12T22:11:01.278Z,100260.69
2023-09-12T22:14:04.216Z,100266.00
2023-09-12T22:17:07.368Z,100261.66
2023-09-12T22:20:13.660Z,100268.72
2023-09-12T22:23:16.943Z,100267.84
2023-09-12T22:26:19.355Z,100263.44
2023-09-12T22:29:22.361Z,100268.75
2023-09-12T22:32:25.038Z,100263.50
2023-09-12T22:35:27.783Z,100261.75
2023-09-12T22:38:31.238Z,100265.28
2023-09-12T22:41:35.823Z,100266.19
2023-09-12T22:44:38.361Z,100262.69
2023-09-12T22:47:41.813Z,100261.81
2023-09-12T22:50:45.898Z,100260.09
2023-09-12T22:53:49.075Z,100257.44
2023-09-12T22:56:51.570Z,100257.44
2023-09-12T22:59:54.511Z,100257.41
2023-09-12T23:02:57.321Z,100264.47
2023-09-12T23:06:03.764Z,100259.22
2023-09-12T23:09:06.320Z,100259.22
2023-09-12T23:12:09.448Z,100258.31
2023-09-12T23:15:12.107Z,100260.97
2023-09-12T23:18:15.356Z,100260.97
2023-09-12T23:21:18.039Z,100253.94
2023-09-12T23:24:21.034Z,100253.94
2023-09-12T23:27:24.876Z,100252.19
2023-09-12T23:30:27.956Z,100256.63
2023-09-12T23:33:30.646Z,100258.38
2023-09-12T23:36:33.973Z,100250.44
2023-09-12T23:39:36.545Z,100244.28
2023-09-12T23:42:40.607Z,100246.94
2023-09-12T23:45:43.198Z,100244.31
2023-09-12T23:48:46.228Z,100246.94
2023-09-12T23:51:48.898Z,100253.09
2023-09-12T23:54:51.820Z,100251.34
2023-09-12T23:57:54.373Z,100255.75
